Weather reports worldwide

Advertisment
Bealach, United Kingdom (3039): temperature & dewpoint: 11.08.2018 13:00:00 - 17.08.2018 13:00:00 (BST)Bealach, United Kingdom (3039): wind speed & gusts: 11.08.2018 13:00:00 - 17.08.2018 13:00:00 (BST)Bealach, United Kingdom (3039): wind direction: 11.08.2018 13:00:00 - 17.08.2018 13:00:00 (BST)
Date & Time tt [°C] td [°C] ff [km/h] ff [kn] fx [km/h] fx [kn] dd
17.08.2018 13:00:00 8,3 8,3 54 29 87 47 S
17.08.2018 12:00:00 8,2 8,2 59 32 91 49 SSW
17.08.2018 11:00:00 7,9 7,8 50 27 81 44 S
17.08.2018 10:00:00 7,5 7,5 63 34 78 42 SSW
17.08.2018 09:00:00 7,3 7,3 59 32 72 39 SSW
17.08.2018 08:00:00 6,9 6,8 44 24 54 29 SW
17.08.2018 07:00:00 6,5 6,5 34 18 48 26 SW
17.08.2018 06:00:00 6,3 6,3 44 24 65 35 WSW
17.08.2018 05:00:00 6,5 6,4 46 25 59 32 WSW
17.08.2018 04:00:00 6,2 6,2 44 24 70 38 W
17.08.2018 03:00:00 6,8 6,7 46 25 70 38 WSW
17.08.2018 02:00:00 6,7 6,7 35 19 61 33 WSW
17.08.2018 01:00:00 6,8 6,8 42 23 65 35 WSW
17.08.2018 00:00:00 6,8 6,8 48 26 61 33 WSW
16.08.2018 23:00:00 6,8 6,7 46 25 59 32 WSW
16.08.2018 22:00:00 6,6 6,6 44 24 68 37 WSW
16.08.2018 21:00:00 7,0 7,0 48 26 61 33 WSW
16.08.2018 20:00:00 7,0 6,9 46 25 59 32 WSW
16.08.2018 19:00:00 7,4 7,4 44 24 63 34 WSW
16.08.2018 18:00:00 7,2 7,2 52 28 61 33 WSW
16.08.2018 17:00:00 7,4 7,4 48 26 74 40 WSW
16.08.2018 16:00:00 7,4 7,4 44 24 61 33 WSW
16.08.2018 15:00:00 7,3 7,2 46 25 57 31 WSW
16.08.2018 14:00:00 7,1 7,1 41 22 50 27 WSW
16.08.2018 13:00:00 7,0 7,0 39 21 52 28 WSW
16.08.2018 12:00:00 7,0 7,0 31 17 55 30 WSW
16.08.2018 11:00:00 7,2 7,2 44 24 57 31 SW
16.08.2018 10:00:00 7,0 7,0 42 23 59 32 SW
16.08.2018 09:00:00 6,7 6,7 41 22 50 27 SW
16.08.2018 08:00:00 6,5 6,5 48 26 67 36 SW
16.08.2018 07:00:00 6,6 6,6 50 27 74 40 SSW
16.08.2018 06:00:00 6,9 6,9 57 31 78 42 SSW
16.08.2018 05:00:00 6,9 6,9 57 31 81 44 SSW
16.08.2018 04:00:00 6,6 6,6 63 34 83 45 SSW
16.08.2018 03:00:00 6,9 6,9 54 29 80 43 SSW
16.08.2018 02:00:00 6,9 6,9 48 26 65 35 SSW
16.08.2018 01:00:00 6,7 6,7 54 29 65 35 SSW
16.08.2018 00:00:00 6,5 6,5 48 26 61 33 SSW
15.08.2018 23:00:00 6,7 6,7 52 28 68 37 SSW
15.08.2018 22:00:00 6,9 6,9 46 25 57 31 SSW
15.08.2018 21:00:00 7,6 7,6 46 25 72 39 SW
15.08.2018 20:00:00 8,7 8,7 67 36 102 55 SSW
15.08.2018 19:00:00 8,2 8,2 54 29 96 52 S
15.08.2018 18:00:00 8,3 8,2 59 32 94 51 S
15.08.2018 17:00:00 8,3 8,3 46 25 102 55 S
15.08.2018 16:00:00 8,0 8,0 44 24 100 54 S
15.08.2018 15:00:00 8,2 8,2 54 29 83 45 S
15.08.2018 14:00:00 8,2 8,2 63 34 94 51 SSW
15.08.2018 13:00:00 8,4 8,4 59 32 81 44 SSW
15.08.2018 12:00:00 8,0 7,9 59 32 72 39 SSW
15.08.2018 11:00:00 8,6 8,6 54 29 76 41 SSW
15.08.2018 10:00:00 8,4 8,4 55 30 68 37 SSW
15.08.2018 09:00:00 9,3 9,3 59 32 70 38 SSW
15.08.2018 08:00:00 9,5 9,4 54 29 65 35 SW
15.08.2018 07:00:00 10,0 10,0 31 17 57 31 WSW
15.08.2018 06:00:00 10,7 10,7 44 24 61 33 SSW
15.08.2018 05:00:00 9,9 9,9 42 23 52 28 SSW
15.08.2018 04:00:00 9,5 9,5 48 26 59 32 SSW
15.08.2018 03:00:00 9,2 9,2 52 28 57 31 SSW
15.08.2018 02:00:00 8,8 8,8 46 25 59 32 S
15.08.2018 01:00:00 8,3 8,3 48 26 61 33 SSW
15.08.2018 00:00:00 8,2 8,2 37 20 54 29 SSW
14.08.2018 23:00:00 8,3 8,3 35 19 57 31 S
14.08.2018 22:00:00 8,3 8,3 39 21 52 28 SSW
14.08.2018 21:00:00 8,3 8,3 34 18 46 25 SSW
14.08.2018 20:00:00 8,9 8,9 18 10 50 27 SSW
14.08.2018 19:00:00 9,0 9,0 39 21 50 27 WSW
14.08.2018 18:00:00 9,6 9,6 44 24 57 31 SW
14.08.2018 17:00:00 10,3 10,3 35 19 - - SW
14.08.2018 16:00:00 10,8 10,8 37 20 59 32 SW
14.08.2018 15:00:00 11,0 11,0 46 25 67 36 SSW
14.08.2018 14:00:00 11,0 11,0 57 31 74 40 SSW
14.08.2018 13:00:00 10,5 10,5 57 31 72 39 S
14.08.2018 12:00:00 10,2 10,2 44 24 68 37 S
14.08.2018 11:00:00 10,0 10,0 48 26 65 35 SSW
14.08.2018 10:00:00 9,6 9,6 44 24 54 29 SSW
14.08.2018 09:00:00 9,4 9,4 46 25 59 32 SSW
14.08.2018 08:00:00 9,2 9,2 48 26 63 34 SSW
14.08.2018 07:00:00 9,4 9,4 48 26 65 35 SSW
14.08.2018 06:00:00 9,3 9,3 42 23 52 28 SSW
14.08.2018 05:00:00 9,0 9,0 41 22 52 28 SSW
14.08.2018 04:00:00 8,6 8,6 46 25 59 32 SSW
14.08.2018 03:00:00 8,9 8,9 48 26 55 30 SSW
14.08.2018 02:00:00 8,9 8,9 42 23 52 28 S
14.08.2018 01:00:00 9,0 9,0 41 22 52 28 S
14.08.2018 00:00:00 8,5 8,5 37 20 - - S
13.08.2018 23:00:00 8,8 8,7 34 18 - - SSW
13.08.2018 22:00:00 8,6 8,6 29 16 - - S
13.08.2018 21:00:00 9,1 9,0 28 15 - - S
13.08.2018 20:00:00 9,2 9,2 31 17 - - SSW
13.08.2018 19:00:00 9,7 9,6 26 14 - - SSW
13.08.2018 18:00:00 9,7 9,4 26 14 - - SSW
13.08.2018 17:00:00 10,0 9,7 22 12 - - SSW
13.08.2018 16:00:00 10,3 9,7 24 13 - - SSW
13.08.2018 15:00:00 10,6 9,7 18 10 - - SSW
13.08.2018 14:00:00 10,3 9,5 21 11 - - SSW
13.08.2018 13:00:00 10,2 9,4 15 8 - - SSE
13.08.2018 12:00:00 10,0 9,1 13 7 - - SSE
13.08.2018 11:00:00 9,5 8,7 11 6 - - SSE
13.08.2018 10:00:00 9,1 8,8 9 5 - - SE
13.08.2018 09:00:00 9,1 9,1 13 7 - - SSE
13.08.2018 08:00:00 9,0 9,0 16 9 - - SSE
13.08.2018 07:00:00 9,0 9,0 8 4 - - ESE
13.08.2018 06:00:00 9,0 8,9 8 4 - - SE
13.08.2018 05:00:00 8,9 8,9 8 4 - - ESE
13.08.2018 04:00:00 8,9 8,9 8 4 - - SE
13.08.2018 03:00:00 8,9 8,9 16 9 - - E
13.08.2018 02:00:00 8,9 8,9 18 10 - - ESE
13.08.2018 01:00:00 8,8 8,8 18 10 - - ESE
13.08.2018 00:00:00 8,8 8,8 18 10 - - ESE
12.08.2018 23:00:00 8,8 8,8 21 11 - - ESE
12.08.2018 22:00:00 9,0 9,0 15 8 - - ESE
12.08.2018 21:00:00 9,0 9,0 18 10 - - ESE
12.08.2018 20:00:00 9,2 9,2 15 8 - - ESE
12.08.2018 19:00:00 9,3 9,3 15 8 - - ESE
12.08.2018 18:00:00 9,3 9,3 15 8 - - ESE
12.08.2018 17:00:00 9,3 9,2 15 8 - - ESE
12.08.2018 16:00:00 9,2 9,2 16 9 - - ESE
12.08.2018 15:00:00 9,4 8,6 24 13 - - ESE
12.08.2018 14:00:00 9,4 8,4 26 14 48 26 ESE
12.08.2018 13:00:00 9,5 7,9 29 16 54 29 E
12.08.2018 12:00:00 9,6 6,7 24 13 50 27 ESE
12.08.2018 11:00:00 9,6 6,5 24 13 - - E
12.08.2018 10:00:00 9,2 6,0 21 11 - - ESE
12.08.2018 09:00:00 8,9 6,1 18 10 - - E
12.08.2018 08:00:00 8,8 6,2 22 12 - - ESE
12.08.2018 07:00:00 8,6 6,1 22 12 - - ESE
12.08.2018 06:00:00 8,6 6,3 18 10 - - ESE
12.08.2018 05:00:00 8,6 6,1 22 12 - - ESE
12.08.2018 04:00:00 8,3 5,5 18 10 - - ESE
12.08.2018 03:00:00 8,6 5,5 21 11 - - ESE
12.08.2018 02:00:00 8,7 5,1 18 10 - - ESE
12.08.2018 01:00:00 8,5 4,7 21 11 - - ESE
12.08.2018 00:00:00 8,3 5,3 18 10 - - ESE
11.08.2018 23:00:00 8,2 5,5 22 12 - - ESE
11.08.2018 22:00:00 9,0 5,1 24 13 - - ESE
11.08.2018 21:00:00 9,0 4,8 21 11 - - ESE
11.08.2018 20:00:00 8,9 4,9 16 9 - - ESE
11.08.2018 19:00:00 8,6 5,8 16 9 - - ESE
11.08.2018 18:00:00 8,8 4,7 18 10 - - ESE
11.08.2018 17:00:00 9,0 3,8 15 8 - - E
11.08.2018 16:00:00 9,3 1,0 5 3 - - E
11.08.2018 15:00:00 9,2 2,2 5 3 - - NE
11.08.2018 14:00:00 8,2 2,8 9 5 - - SSE
11.08.2018 13:00:00 7,9 -0,1 4 2 - - E

tt = temperature
td = dewpoint
ff = wind speed
fx = gusts
dd = wind direction

Next stations